createdAt,value
2018-08-05T00:00:32.324Z,0.00
2018-08-05T00:02:25.356Z,0.00
2018-08-05T00:03:25.382Z,0.00
2018-08-05T00:05:18.429Z,0.00
2018-08-05T00:06:18.436Z,0.00
2018-08-05T00:08:11.469Z,0.00
2018-08-05T00:09:11.493Z,0.00
2018-08-05T00:11:04.443Z,0.00
2018-08-05T00:12:04.446Z,0.00
2018-08-05T00:13:57.507Z,0.00
2018-08-05T00:14:57.504Z,0.00
2018-08-05T00:17:00.426Z,0.00
2018-08-05T00:18:00.451Z,0.00
2018-08-05T00:19:53.422Z,0.00
2018-08-05T00:20:53.399Z,0.00
2018-08-05T00:22:46.316Z,0.00
2018-08-05T00:23:46.345Z,0.00
2018-08-05T00:25:39.278Z,0.00
2018-08-05T00:26:39.291Z,0.00
2018-08-05T00:28:32.200Z,0.00
2018-08-05T00:29:32.234Z,0.00
2018-08-05T00:31:25.169Z,0.00
2018-08-05T00:32:25.180Z,0.00
2018-08-05T00:34:18.095Z,0.00
2018-08-05T00:35:18.123Z,0.00
2018-08-05T00:37:11.060Z,0.00
2018-08-05T00:38:11.069Z,0.00
2018-08-05T00:40:04.012Z,0.00
2018-08-05T00:41:04.016Z,0.00
2018-08-05T00:42:56.939Z,0.00
2018-08-05T00:43:56.965Z,0.00
2018-08-05T00:45:49.912Z,0.00
2018-08-05T00:46:49.918Z,0.00
2018-08-05T00:48:42.833Z,0.00
2018-08-05T00:49:42.854Z,0.00
2018-08-05T00:51:35.794Z,0.00
2018-08-05T00:52:35.804Z,0.00
2018-08-05T00:54:28.717Z,0.00
2018-08-05T00:55:28.750Z,0.00
2018-08-05T00:57:21.682Z,0.00
2018-08-05T00:58:21.684Z,0.00
2018-08-05T01:00:14.604Z,0.00
2018-08-05T01:01:14.627Z,0.00
2018-08-05T01:03:07.567Z,0.00
2018-08-05T01:04:07.575Z,0.00
2018-08-05T01:06:00.514Z,0.00
2018-08-05T01:07:00.521Z,0.00
2018-08-05T01:08:53.436Z,0.00
2018-08-05T01:09:53.468Z,0.00
2018-08-05T01:11:46.404Z,0.00
2018-08-05T01:12:46.412Z,0.00
2018-08-05T01:14:39.329Z,0.00
2018-08-05T01:15:39.356Z,0.00
2018-08-05T01:17:32.298Z,0.00
2018-08-05T01:18:32.299Z,0.00
2018-08-05T01:20:25.223Z,0.00
2018-08-05T01:21:25.247Z,0.00
2018-08-05T01:23:18.181Z,0.00
2018-08-05T01:24:18.192Z,0.00
2018-08-05T01:26:11.107Z,0.00
2018-08-05T01:27:11.136Z,0.00
2018-08-05T01:29:04.071Z,0.00
2018-08-05T01:30:04.083Z,0.00
2018-08-05T01:31:57.014Z,0.00
2018-08-05T01:32:57.025Z,0.00
2018-08-05T01:34:49.937Z,0.00
2018-08-05T01:35:49.969Z,0.00
2018-08-05T01:37:42.904Z,0.00
2018-08-05T01:38:42.916Z,0.00
2018-08-05T01:40:35.824Z,0.00
2018-08-05T01:41:35.849Z,0.00
2018-08-05T01:43:28.787Z,0.00
2018-08-05T01:44:28.793Z,0.00
2018-08-05T01:46:21.709Z,0.00
2018-08-05T01:47:21.741Z,0.00
2018-08-05T01:49:14.673Z,0.00
2018-08-05T01:50:14.682Z,0.00
2018-08-05T01:52:07.595Z,0.00
2018-08-05T01:53:07.628Z,0.00
2018-08-05T01:55:00.561Z,0.00
2018-08-05T01:56:00.571Z,0.00
2018-08-05T01:57:53.512Z,0.00
2018-08-05T01:58:53.512Z,0.00
2018-08-05T02:00:46.430Z,0.00
2018-08-05T02:01:46.460Z,0.00
2018-08-05T02:03:39.426Z,0.00
2018-08-05T02:04:39.405Z,0.00
2018-08-05T02:06:32.319Z,0.00
2018-08-05T02:07:32.347Z,0.00
2018-08-05T02:09:25.296Z,0.00
2018-08-05T02:10:25.282Z,0.00
2018-08-05T02:12:18.201Z,0.00
2018-08-05T02:13:18.226Z,0.00
2018-08-05T02:15:11.170Z,0.00
2018-08-05T02:16:11.175Z,0.00
2018-08-05T02:18:04.088Z,0.00
2018-08-05T02:19:04.111Z,0.00
2018-08-05T02:20:57.051Z,0.00
2018-08-05T02:21:57.054Z,0.00
2018-08-05T02:23:49.996Z,0.00
2018-08-05T02:24:49.997Z,0.00
2018-08-05T02:26:42.914Z,0.00
2018-08-05T02:27:42.939Z,0.00
2018-08-05T02:29:35.876Z,0.00
2018-08-05T02:30:35.886Z,0.00
2018-08-05T02:32:28.802Z,0.00
2018-08-05T02:33:28.828Z,0.00
2018-08-05T02:35:21.763Z,0.00
2018-08-05T02:36:21.773Z,0.00
2018-08-05T02:38:14.684Z,0.00
2018-08-05T02:39:14.709Z,0.00
2018-08-05T02:41:07.646Z,0.00
2018-08-05T02:42:07.655Z,0.00
2018-08-05T02:44:00.567Z,0.00
2018-08-05T02:45:00.592Z,0.00
2018-08-05T02:46:53.531Z,0.00
2018-08-05T02:47:53.540Z,0.00
2018-08-05T02:49:46.467Z,0.00
2018-08-05T02:50:46.470Z,0.00
2018-08-05T02:52:39.389Z,0.00
2018-08-05T02:53:39.417Z,0.00
2018-08-05T02:55:32.349Z,0.00
2018-08-05T02:56:32.361Z,0.00
2018-08-05T02:58:25.276Z,0.00
2018-08-05T02:59:25.299Z,0.00
2018-08-05T03:01:18.232Z,0.00
2018-08-05T03:02:18.236Z,0.00
2018-08-05T03:04:11.156Z,0.00
2018-08-05T03:05:11.184Z,0.00
2018-08-05T03:07:04.115Z,0.00
2018-08-05T03:08:04.117Z,0.00
2018-08-05T03:09:57.058Z,0.00
2018-08-05T03:10:57.054Z,0.00
2018-08-05T03:12:49.997Z,0.00
2018-08-05T03:13:49.994Z,0.00
2018-08-05T03:15:42.930Z,0.00
2018-08-05T03:16:42.933Z,0.00
2018-08-05T03:18:35.849Z,0.00
2018-08-05T03:19:35.873Z,0.00
2018-08-05T03:21:28.806Z,0.00
2018-08-05T03:22:28.811Z,0.00
2018-08-05T03:24:21.727Z,0.00
2018-08-05T03:25:21.757Z,0.00
2018-08-05T03:27:14.688Z,0.00
2018-08-05T03:28:14.691Z,0.00
2018-08-05T03:30:07.609Z,0.00
2018-08-05T03:31:07.632Z,0.00
2018-08-05T03:33:00.568Z,0.00
2018-08-05T03:34:00.570Z,0.00
2018-08-05T03:35:53.521Z,0.00
2018-08-05T03:36:53.510Z,0.00
2018-08-05T03:38:46.428Z,0.00
2018-08-05T03:39:46.456Z,0.00
2018-08-05T03:41:39.389Z,0.00
2018-08-05T03:42:39.397Z,0.00
2018-08-05T03:44:32.310Z,0.00
2018-08-05T03:45:32.340Z,0.00
2018-08-05T03:47:25.271Z,0.00
2018-08-05T03:48:25.282Z,5.63
2018-08-05T03:50:18.191Z,5.63
2018-08-05T03:51:18.217Z,5.63
2018-08-05T03:53:11.152Z,5.63
2018-08-05T03:54:11.155Z,5.63
2018-08-05T03:56:04.071Z,5.63
2018-08-05T03:57:04.094Z,11.25
2018-08-05T03:58:57.031Z,11.25
2018-08-05T03:59:57.033Z,11.25
2018-08-05T04:01:49.979Z,11.25
2018-08-05T04:02:49.980Z,11.25
2018-08-05T04:04:42.912Z,16.88
2018-08-05T04:05:42.915Z,16.88
2018-08-05T04:07:35.853Z,16.88
2018-08-05T04:08:35.862Z,22.50
2018-08-05T04:10:28.773Z,22.50
2018-08-05T04:11:28.793Z,22.50
2018-08-05T04:13:21.729Z,28.13
2018-08-05T04:14:21.732Z,28.13
2018-08-05T04:16:14.652Z,28.13
2018-08-05T04:17:14.672Z,33.75
2018-08-05T04:19:07.607Z,33.75
2018-08-05T04:20:07.613Z,33.75
2018-08-05T04:22:00.531Z,33.75
2018-08-05T04:23:00.557Z,33.75
2018-08-05T04:24:53.489Z,33.75
2018-08-05T04:25:53.517Z,33.75
2018-08-05T04:27:46.428Z,39.38
2018-08-05T04:28:46.435Z,45.00
2018-08-05T04:30:39.363Z,45.00
2018-08-05T04:31:39.377Z,50.63
2018-08-05T04:33:32.310Z,67.50
2018-08-05T04:34:32.315Z,67.50
2018-08-05T04:36:25.228Z,67.50
2018-08-05T04:37:25.251Z,67.50
2018-08-05T04:39:18.188Z,50.63
2018-08-05T04:40:18.195Z,50.63
2018-08-05T04:42:11.109Z,45.00
2018-08-05T04:43:11.139Z,56.25
2018-08-05T04:45:04.071Z,73.13
2018-08-05T04:46:04.073Z,95.63
2018-08-05T04:47:56.989Z,95.63
2018-08-05T04:48:57.019Z,95.63
2018-08-05T04:50:49.949Z,95.63
2018-08-05T04:51:49.954Z,95.63
2018-08-05T04:53:42.891Z,84.38
2018-08-05T04:54:42.894Z,95.63
2018-08-05T04:56:35.810Z,101.25
2018-08-05T04:57:35.834Z,112.50
2018-08-05T04:59:28.771Z,106.88
2018-08-05T05:00:28.780Z,95.63
2018-08-05T05:02:21.691Z,106.88
2018-08-05T05:03:21.716Z,112.50
2018-08-05T05:05:14.654Z,146.25
2018-08-05T05:06:14.664Z,95.63
2018-08-05T05:08:07.575Z,67.50
2018-08-05T05:09:07.604Z,61.88
2018-08-05T05:11:00.539Z,67.50
2018-08-05T05:12:00.541Z,67.50
2018-08-05T05:13:53.487Z,73.13
2018-08-05T05:14:53.488Z,78.75
2018-08-05T05:16:46.400Z,174.38
2018-08-05T05:17:46.431Z,191.25
2018-08-05T05:19:39.366Z,253.13
2018-08-05T05:20:39.369Z,309.38
2018-08-05T05:22:32.285Z,225.00
2018-08-05T05:23:32.315Z,225.00
2018-08-05T05:25:25.259Z,253.13
2018-08-05T05:26:25.262Z,264.38
2018-08-05T05:28:18.174Z,258.75
2018-08-05T05:29:18.199Z,281.25
2018-08-05T05:31:11.141Z,275.63
2018-08-05T05:32:11.146Z,309.38
2018-08-05T05:34:04.085Z,303.75
2018-08-05T05:35:04.093Z,298.13
2018-08-05T05:36:57.010Z,286.88
2018-08-05T05:37:57.039Z,281.25
2018-08-05T05:39:49.984Z,241.88
2018-08-05T05:40:49.985Z,219.38
2018-08-05T05:42:42.911Z,236.25
2018-08-05T05:43:42.938Z,253.13
2018-08-05T05:45:35.886Z,315.00
2018-08-05T05:46:35.887Z,331.88
2018-08-05T05:48:28.808Z,270.00
2018-08-05T05:49:28.834Z,241.88
2018-08-05T05:51:21.782Z,292.50
2018-08-05T05:52:21.784Z,253.13
2018-08-05T05:54:14.780Z,281.25
2018-08-05T05:55:14.731Z,264.38
2018-08-05T05:57:07.648Z,298.13
2018-08-05T05:58:07.677Z,331.88
2018-08-05T06:00:00.615Z,343.13
2018-08-05T06:01:00.624Z,270.00
2018-08-05T06:02:53.539Z,253.13
2018-08-05T06:03:53.568Z,275.63
2018-08-05T06:05:46.505Z,646.88
2018-08-05T06:06:46.514Z,646.88
2018-08-05T06:08:39.434Z,658.13
2018-08-05T06:09:39.462Z,523.13
2018-08-05T06:11:32.401Z,376.88
2018-08-05T06:12:32.411Z,309.38
2018-08-05T06:14:25.362Z,270.00
2018-08-05T06:15:25.364Z,270.00
2018-08-05T06:17:18.285Z,253.13
2018-08-05T06:18:18.314Z,303.75
2018-08-05T06:20:11.254Z,393.75
2018-08-05T06:21:11.264Z,421.88
2018-08-05T06:23:04.191Z,343.13
2018-08-05T06:24:04.221Z,331.88
2018-08-05T06:25:57.158Z,708.75
2018-08-05T06:26:57.166Z,781.88
2018-08-05T06:28:50.089Z,804.38
2018-08-05T06:29:50.118Z,945.00
2018-08-05T06:31:43.064Z,945.00
2018-08-05T06:32:43.067Z,961.88
2018-08-05T06:34:36.020Z,1006.88
2018-08-05T06:35:36.023Z,973.13
2018-08-05T06:37:28.947Z,753.75
2018-08-05T06:38:28.978Z,984.38
2018-08-05T06:40:21.918Z,1068.75
2018-08-05T06:41:21.931Z,556.88
2018-08-05T06:43:14.855Z,1001.25
2018-08-05T06:44:14.883Z,894.38
2018-08-05T06:46:07.835Z,855.00
2018-08-05T06:47:07.840Z,776.25
2018-08-05T06:49:00.768Z,607.50
2018-08-05T06:50:00.797Z,1406.25
2018-08-05T06:51:53.751Z,680.63
2018-08-05T06:52:53.754Z,466.88
2018-08-05T06:54:46.708Z,258.75
2018-08-05T06:55:46.711Z,236.25
2018-08-05T06:57:39.635Z,556.88
2018-08-05T06:58:39.669Z,1085.63
2018-08-05T07:00:32.614Z,1338.75
2018-08-05T07:01:32.623Z,472.50
2018-08-05T07:03:25.595Z,534.38
2018-08-05T07:04:25.579Z,511.88
2018-08-05T07:06:18.530Z,1473.75
2018-08-05T07:07:18.533Z,1035.00
2018-08-05T07:09:11.496Z,281.25
2018-08-05T07:10:11.492Z,292.50
2018-08-05T07:12:04.438Z,1428.75
2018-08-05T07:13:04.448Z,691.88
2018-08-05T07:14:57.395Z,770.63
2018-08-05T07:15:57.404Z,455.63
2018-08-05T07:17:50.329Z,500.63
2018-08-05T07:18:50.359Z,438.75
2018-08-05T07:20:43.303Z,376.88
2018-08-05T07:21:43.312Z,331.88
2018-08-05T07:23:36.239Z,258.75
2018-08-05T07:24:36.268Z,208.13
2018-08-05T07:26:29.211Z,196.88
2018-08-05T07:27:29.219Z,208.13
2018-08-05T07:29:22.144Z,213.75
2018-08-05T07:30:22.171Z,213.75
2018-08-05T07:32:15.161Z,225.00
2018-08-05T07:33:15.129Z,225.00
2018-08-05T07:35:08.065Z,236.25
2018-08-05T07:36:08.072Z,236.25
2018-08-05T07:38:01.074Z,258.75
2018-08-05T07:39:01.023Z,270.00
2018-08-05T07:40:53.967Z,270.00
2018-08-05T07:41:53.968Z,264.38
2018-08-05T07:43:46.920Z,253.13
2018-08-05T07:44:46.920Z,286.88
2018-08-05T07:46:39.869Z,365.63
2018-08-05T07:47:39.868Z,399.38
2018-08-05T07:49:32.790Z,376.88
2018-08-05T07:50:32.859Z,326.25
2018-08-05T07:52:25.785Z,230.63
2018-08-05T07:53:25.767Z,236.25
2018-08-05T07:55:18.704Z,202.50
2018-08-05T07:56:18.735Z,208.13
2018-08-05T07:58:11.631Z,213.75
2018-08-05T07:59:11.661Z,225.00
2018-08-05T08:01:04.620Z,230.63
2018-08-05T08:02:04.626Z,247.50
2018-08-05T08:03:57.537Z,292.50
2018-08-05T08:04:57.564Z,298.13
2018-08-05T08:06:50.501Z,270.00
2018-08-05T08:07:50.521Z,264.38
2018-08-05T08:09:43.431Z,270.00
2018-08-05T08:10:43.467Z,258.75
2018-08-05T08:12:36.400Z,247.50
2018-08-05T08:13:36.408Z,241.88
2018-08-05T08:15:29.362Z,241.88
2018-08-05T08:16:29.355Z,241.88
2018-08-05T08:18:22.276Z,236.25
2018-08-05T08:19:22.310Z,236.25
2018-08-05T08:21:15.302Z,275.63
2018-08-05T08:22:15.253Z,264.38
2018-08-05T08:24:08.365Z,258.75
2018-08-05T08:25:08.390Z,292.50
2018-08-05T08:27:01.409Z,303.75
2018-08-05T08:28:01.343Z,292.50
2018-08-05T08:29:54.262Z,376.88
2018-08-05T08:30:54.292Z,382.50
2018-08-05T08:32:47.238Z,382.50
2018-08-05T08:33:47.288Z,388.13
2018-08-05T08:35:40.166Z,405.00
2018-08-05T08:36:40.190Z,416.25
2018-08-05T08:38:33.172Z,478.13
2018-08-05T08:39:33.231Z,421.88
2018-08-05T08:41:26.108Z,337.50
2018-08-05T08:42:26.091Z,337.50
2018-08-05T08:44:20.567Z,416.25
2018-08-05T08:45:19.040Z,438.75
2018-08-05T08:47:11.982Z,405.00
2018-08-05T08:48:11.995Z,382.50
2018-08-05T08:50:05.106Z,399.38
2018-08-05T08:51:05.107Z,393.75
2018-08-05T08:52:58.056Z,376.88
2018-08-05T08:53:58.591Z,371.25
2018-08-05T08:55:51.021Z,348.75
2018-08-05T08:56:51.044Z,348.75
2018-08-05T08:58:44.001Z,388.13
2018-08-05T08:59:44.069Z,421.88
2018-08-05T09:01:36.965Z,433.13
2018-08-05T09:02:36.961Z,433.13
2018-08-05T09:04:29.886Z,388.13
2018-08-05T09:05:29.914Z,382.50
2018-08-05T09:07:22.858Z,360.00
2018-08-05T09:08:22.866Z,326.25
2018-08-05T09:10:15.791Z,225.00
2018-08-05T09:11:15.820Z,185.63
2018-08-05T09:13:08.764Z,168.75
2018-08-05T09:14:08.770Z,174.38
2018-08-05T09:16:01.698Z,196.88
2018-08-05T09:17:01.722Z,208.13
2018-08-05T09:18:54.665Z,292.50
2018-08-05T09:19:54.677Z,348.75
2018-08-05T09:21:47.596Z,399.38
2018-08-05T09:22:47.624Z,438.75
2018-08-05T09:24:40.573Z,427.50
2018-08-05T09:25:40.574Z,433.13
2018-08-05T09:27:33.497Z,427.50
2018-08-05T09:28:33.527Z,399.38
2018-08-05T09:30:26.469Z,348.75
2018-08-05T09:31:26.477Z,303.75
2018-08-05T09:33:19.421Z,264.38
2018-08-05T09:34:19.426Z,281.25
2018-08-05T09:36:12.361Z,326.25
2018-08-05T09:37:12.407Z,343.13
2018-08-05T09:39:05.321Z,348.75
2018-08-05T09:40:05.338Z,371.25
2018-08-05T09:41:58.255Z,399.38
2018-08-05T09:42:58.280Z,421.88
2018-08-05T09:44:51.224Z,399.38
2018-08-05T09:45:51.234Z,376.88
2018-08-05T09:47:44.153Z,303.75
2018-08-05T09:48:44.183Z,292.50
2018-08-05T09:50:37.133Z,247.50
2018-08-05T09:51:37.140Z,208.13
2018-08-05T09:53:30.077Z,241.88
2018-08-05T09:54:30.089Z,275.63
2018-08-05T09:56:23.008Z,388.13
2018-08-05T09:57:23.035Z,427.50
2018-08-05T09:59:15.978Z,478.13
2018-08-05T10:00:15.986Z,478.13
2018-08-05T10:02:08.911Z,421.88
2018-08-05T10:03:08.941Z,393.75
2018-08-05T10:05:01.880Z,360.00
2018-08-05T10:06:01.891Z,343.13
2018-08-05T10:07:54.814Z,309.38
2018-08-05T10:08:54.844Z,286.88
2018-08-05T10:10:47.788Z,247.50
2018-08-05T10:11:47.795Z,225.00
2018-08-05T10:13:40.738Z,241.88
2018-08-05T10:14:40.751Z,264.38
2018-08-05T10:16:33.670Z,315.00
2018-08-05T10:17:33.698Z,354.38
2018-08-05T10:19:26.660Z,388.13
2018-08-05T10:20:26.676Z,382.50
2018-08-05T10:22:19.574Z,354.38
2018-08-05T10:23:19.604Z,337.50
2018-08-05T10:25:12.545Z,286.88
2018-08-05T10:26:12.556Z,241.88
2018-08-05T10:28:05.528Z,196.88
2018-08-05T10:29:05.515Z,196.88
2018-08-05T10:30:58.455Z,213.75
2018-08-05T10:31:58.480Z,258.75
2018-08-05T10:33:51.405Z,388.13
2018-08-05T10:34:51.412Z,455.63
2018-08-05T10:36:44.335Z,483.75
2018-08-05T10:37:44.364Z,444.38
2018-08-05T10:39:37.331Z,388.13
2018-08-05T10:40:37.315Z,360.00
2018-08-05T10:42:30.241Z,236.25
2018-08-05T10:43:30.292Z,208.13
2018-08-05T10:45:23.213Z,174.38
2018-08-05T10:46:23.221Z,163.13
2018-08-05T10:48:16.159Z,174.38
2018-08-05T10:49:16.190Z,174.38
2018-08-05T10:51:09.132Z,185.63
2018-08-05T10:52:09.143Z,191.25
2018-08-05T10:54:02.092Z,191.25
2018-08-05T10:55:02.112Z,213.75
2018-08-05T10:56:55.015Z,326.25
2018-08-05T10:57:55.045Z,376.88
2018-08-05T10:59:48.007Z,337.50
2018-08-05T11:00:48.018Z,270.00
2018-08-05T11:02:40.944Z,202.50
2018-08-05T11:03:40.969Z,168.75
2018-08-05T11:05:33.919Z,151.88
2018-08-05T11:06:33.921Z,146.25
2018-08-05T11:08:26.848Z,151.88
2018-08-05T11:09:26.875Z,168.75
2018-08-05T11:11:19.819Z,163.13
2018-08-05T11:12:19.828Z,157.50
2018-08-05T11:14:12.771Z,151.88
2018-08-05T11:15:12.778Z,168.75
2018-08-05T11:17:05.704Z,213.75
2018-08-05T11:18:05.732Z,196.88
2018-08-05T11:19:58.680Z,157.50
2018-08-05T11:20:58.683Z,140.63
2018-08-05T11:22:51.610Z,140.63
2018-08-05T11:23:51.634Z,129.38
2018-08-05T11:25:44.579Z,135.00
2018-08-05T11:26:44.591Z,135.00
2018-08-05T11:28:37.506Z,135.00
2018-08-05T11:29:37.537Z,135.00
2018-08-05T11:31:30.484Z,135.00
2018-08-05T11:32:30.485Z,135.00
2018-08-05T11:34:23.426Z,135.00
2018-08-05T11:35:23.435Z,135.00
2018-08-05T11:37:16.359Z,135.00
2018-08-05T11:38:16.386Z,135.00
2018-08-05T11:40:09.328Z,135.00
2018-08-05T11:41:09.336Z,140.63
2018-08-05T11:43:02.257Z,174.38
2018-08-05T11:44:02.289Z,196.88
2018-08-05T11:45:55.234Z,241.88
2018-08-05T11:46:55.254Z,230.63
2018-08-05T11:48:48.335Z,202.50
2018-08-05T11:49:48.362Z,185.63
2018-08-05T11:51:41.304Z,168.75
2018-08-05T11:52:41.315Z,168.75
2018-08-05T11:54:34.253Z,146.25
2018-08-05T11:55:34.262Z,135.00
2018-08-05T11:57:27.187Z,123.75
2018-08-05T11:58:27.212Z,129.38
2018-08-05T12:00:20.160Z,140.63
2018-08-05T12:01:20.162Z,129.38
2018-08-05T12:03:13.104Z,140.63
2018-08-05T12:04:13.113Z,140.63
2018-08-05T12:06:06.053Z,135.00
2018-08-05T12:07:06.067Z,140.63
2018-08-05T12:08:58.982Z,146.25
2018-08-05T12:09:59.011Z,140.63
2018-08-05T12:11:51.949Z,135.00
2018-08-05T12:12:51.960Z,135.00
2018-08-05T12:14:44.908Z,135.00
2018-08-05T12:15:44.909Z,135.00
2018-08-05T12:17:37.833Z,135.00
2018-08-05T12:18:37.861Z,135.00
2018-08-05T12:20:30.803Z,146.25
2018-08-05T12:21:30.814Z,151.88
2018-08-05T12:23:23.731Z,129.38
2018-08-05T12:24:23.760Z,140.63
2018-08-05T12:26:16.703Z,146.25
2018-08-05T12:27:16.710Z,146.25
2018-08-05T12:29:09.632Z,168.75
2018-08-05T12:30:09.660Z,180.00
2018-08-05T12:32:02.620Z,191.25
2018-08-05T12:33:02.612Z,180.00
2018-08-05T12:34:55.554Z,168.75
2018-08-05T12:35:55.562Z,163.13
2018-08-05T12:37:48.491Z,146.25
2018-08-05T12:41:07.341Z,157.50
2018-08-05T12:42:07.236Z,168.75
2018-08-05T12:44:00.196Z,180.00
2018-08-05T12:45:00.189Z,191.25
2018-08-05T12:46:53.147Z,213.75
2018-08-05T12:47:53.137Z,191.25
2018-08-05T12:49:46.063Z,151.88
2018-08-05T12:50:46.092Z,140.63
2018-08-05T12:52:39.034Z,135.00
2018-08-05T12:53:39.048Z,135.00
2018-08-05T12:55:31.984Z,135.00
2018-08-05T12:56:32.009Z,135.00
2018-08-05T12:58:24.913Z,135.00
2018-08-05T12:59:24.940Z,135.00
2018-08-05T13:01:17.888Z,129.38
2018-08-05T13:02:17.897Z,129.38
2018-08-05T13:04:10.817Z,129.38
2018-08-05T13:05:10.859Z,129.38
2018-08-05T13:07:03.794Z,129.38
2018-08-05T13:08:03.799Z,129.38
2018-08-05T13:09:56.738Z,129.38
2018-08-05T13:10:56.758Z,129.38
2018-08-05T13:12:49.707Z,129.38
2018-08-05T13:13:49.713Z,129.38
2018-08-05T13:15:42.650Z,123.75
2018-08-05T13:16:42.661Z,123.75
2018-08-05T13:18:35.584Z,123.75
2018-08-05T13:19:35.610Z,123.75
2018-08-05T13:21:28.552Z,123.75
2018-08-05T13:22:28.561Z,123.75
2018-08-05T13:24:21.486Z,123.75
2018-08-05T13:25:21.514Z,123.75
2018-08-05T13:27:14.457Z,123.75
2018-08-05T13:28:14.467Z,123.75
2018-08-05T13:30:07.391Z,123.75
2018-08-05T13:31:07.462Z,123.75
2018-08-05T13:33:00.391Z,123.75
2018-08-05T13:34:00.396Z,123.75
2018-08-05T13:35:53.319Z,129.38
2018-08-05T13:36:53.321Z,129.38
2018-08-05T13:38:46.261Z,129.38
2018-08-05T13:39:46.270Z,129.38
2018-08-05T13:41:39.218Z,129.38
2018-08-05T13:42:39.220Z,129.38
2018-08-05T13:44:32.141Z,135.00
2018-08-05T13:45:32.170Z,129.38
2018-08-05T13:47:25.111Z,129.38
2018-08-05T13:48:25.119Z,118.13
2018-08-05T13:50:18.052Z,118.13
2018-08-05T13:51:18.086Z,129.38
2018-08-05T13:53:11.295Z,129.38
2018-08-05T13:54:11.070Z,129.38
2018-08-05T13:56:03.998Z,129.38
2018-08-05T13:57:04.011Z,129.38
2018-08-05T13:58:56.934Z,129.38
2018-08-05T13:59:56.958Z,129.38
2018-08-05T14:01:49.909Z,129.38
2018-08-05T14:02:49.911Z,129.38
2018-08-05T14:04:42.837Z,129.38
2018-08-05T14:05:42.862Z,129.38
2018-08-05T14:07:35.806Z,129.38
2018-08-05T14:08:36.561Z,129.38
2018-08-05T14:10:28.941Z,129.38
2018-08-05T14:11:28.969Z,129.38
2018-08-05T14:13:21.917Z,129.38
2018-08-05T14:14:21.921Z,129.38
2018-08-05T14:16:14.873Z,123.75
2018-08-05T14:17:14.872Z,123.75
2018-08-05T14:19:07.793Z,123.75
2018-08-05T14:20:07.846Z,129.38
2018-08-05T14:22:00.770Z,129.38
2018-08-05T14:23:00.778Z,129.38
2018-08-05T14:24:53.699Z,129.38
2018-08-05T14:25:53.726Z,129.38
2018-08-05T14:27:46.695Z,129.38
2018-08-05T14:28:46.690Z,129.38
2018-08-05T14:30:39.619Z,129.38
2018-08-05T14:31:39.645Z,129.38
2018-08-05T14:33:32.589Z,129.38
2018-08-05T14:34:32.598Z,129.38
2018-08-05T14:36:25.540Z,129.38
2018-08-05T14:37:25.558Z,123.75
2018-08-05T14:39:18.469Z,123.75
2018-08-05T14:40:18.501Z,123.75
2018-08-05T14:42:11.441Z,123.75
2018-08-05T14:43:11.457Z,123.75
2018-08-05T14:45:04.376Z,129.38
2018-08-05T14:46:04.406Z,129.38
2018-08-05T14:47:57.421Z,123.75
2018-08-05T14:48:57.353Z,129.38
2018-08-05T14:50:50.325Z,129.38
2018-08-05T14:51:50.359Z,129.38
2018-08-05T14:53:43.271Z,129.38
2018-08-05T14:54:43.254Z,129.38
2018-08-05T14:56:36.195Z,129.38
2018-08-05T14:57:36.203Z,129.38
2018-08-05T14:59:29.198Z,129.38
2018-08-05T15:00:29.158Z,129.38
2018-08-05T15:02:22.106Z,129.38
2018-08-05T15:03:22.125Z,129.38
2018-08-05T15:05:15.035Z,129.38
2018-08-05T15:06:15.067Z,129.38
2018-08-05T15:08:08.015Z,129.38
2018-08-05T15:09:08.021Z,129.38
2018-08-05T15:11:00.960Z,129.38
2018-08-05T15:12:00.988Z,129.38
2018-08-05T15:13:53.931Z,129.38
2018-08-05T15:14:53.939Z,135.00
2018-08-05T15:16:46.880Z,129.38
2018-08-05T15:17:46.889Z,129.38
2018-08-05T15:19:40.038Z,129.38
2018-08-05T15:20:40.068Z,123.75
2018-08-05T15:22:33.016Z,123.75
2018-08-05T15:23:33.018Z,123.75
2018-08-05T15:25:25.962Z,123.75
2018-08-05T15:26:25.972Z,123.75
2018-08-05T15:28:18.921Z,123.75
2018-08-05T15:29:18.933Z,123.75
2018-08-05T15:31:11.848Z,123.75
2018-08-05T15:32:11.875Z,123.75
2018-08-05T15:34:04.828Z,123.75
2018-08-05T15:35:04.845Z,123.75
2018-08-05T15:36:57.778Z,123.75
2018-08-05T15:37:57.784Z,123.75
2018-08-05T15:39:50.706Z,123.75
2018-08-05T15:40:50.732Z,123.75
2018-08-05T15:42:43.719Z,123.75
2018-08-05T15:43:43.692Z,123.75
2018-08-05T15:45:36.617Z,118.13
2018-08-05T15:46:36.642Z,118.13
2018-08-05T15:48:29.592Z,118.13
2018-08-05T15:49:29.591Z,118.13
2018-08-05T15:51:22.518Z,118.13
2018-08-05T15:52:22.541Z,118.13
2018-08-05T15:54:15.487Z,118.13
2018-08-05T15:55:15.498Z,118.13
2018-08-05T15:57:08.443Z,118.13
2018-08-05T15:58:08.445Z,118.13
2018-08-05T16:00:01.373Z,112.50
2018-08-05T16:01:01.400Z,112.50
2018-08-05T16:02:54.566Z,112.50
2018-08-05T16:03:54.581Z,112.50
2018-08-05T16:05:47.500Z,112.50
2018-08-05T16:06:47.527Z,112.50
2018-08-05T16:08:40.480Z,112.50
2018-08-05T16:09:40.481Z,112.50
2018-08-05T16:11:33.433Z,112.50
2018-08-05T16:12:33.455Z,112.50
2018-08-05T16:14:26.406Z,112.50
2018-08-05T16:15:26.407Z,112.50
2018-08-05T16:17:19.349Z,112.50
2018-08-05T16:18:19.357Z,106.88
2018-08-05T16:20:12.317Z,106.88
2018-08-05T16:21:12.308Z,106.88
2018-08-05T16:23:05.258Z,106.88
2018-08-05T16:24:05.263Z,106.88
2018-08-05T16:25:59.184Z,106.88
2018-08-05T16:26:59.212Z,106.88
2018-08-05T16:28:52.151Z,106.88
2018-08-05T16:29:52.162Z,106.88
2018-08-05T16:31:45.133Z,106.88
2018-08-05T16:32:45.122Z,106.88
2018-08-05T16:34:38.090Z,106.88
2018-08-05T16:35:38.101Z,106.88
2018-08-05T16:37:31.054Z,106.88
2018-08-05T16:38:31.052Z,101.25
2018-08-05T16:40:23.968Z,101.25
2018-08-05T16:41:23.996Z,101.25
2018-08-05T16:43:16.941Z,101.25
2018-08-05T16:44:16.949Z,101.25
2018-08-05T16:46:09.913Z,101.25
2018-08-05T16:47:09.899Z,101.25
2018-08-05T16:49:02.888Z,101.25
2018-08-05T16:50:02.851Z,101.25
2018-08-05T16:51:55.778Z,101.25
2018-08-05T16:52:55.801Z,101.25
2018-08-05T16:54:48.753Z,101.25
2018-08-05T16:55:48.756Z,101.25
2018-08-05T16:57:41.698Z,95.63
2018-08-05T16:58:41.707Z,95.63
2018-08-05T17:00:34.633Z,95.63
2018-08-05T17:01:34.661Z,95.63
2018-08-05T17:03:27.602Z,95.63
2018-08-05T17:04:27.610Z,95.63
2018-08-05T17:06:20.554Z,95.63
2018-08-05T17:07:20.566Z,95.63
2018-08-05T17:09:13.505Z,95.63
2018-08-05T17:10:13.552Z,95.63
2018-08-05T17:12:06.442Z,95.63
2018-08-05T17:13:06.471Z,95.63
2018-08-05T17:14:59.459Z,90.00
2018-08-05T17:15:59.566Z,90.00
2018-08-05T17:17:53.533Z,90.00
2018-08-05T17:18:53.616Z,90.00
2018-08-05T17:20:48.736Z,90.00
2018-08-05T17:21:47.622Z,90.00
2018-08-05T17:23:41.182Z,90.00
2018-08-05T17:24:41.175Z,90.00
2018-08-05T17:26:33.787Z,84.38
2018-08-05T17:27:33.881Z,84.38
2018-08-05T17:29:26.766Z,84.38
2018-08-05T17:30:26.766Z,84.38
2018-08-05T17:32:19.693Z,84.38
2018-08-05T17:33:19.719Z,84.38
2018-08-05T17:35:12.672Z,84.38
2018-08-05T17:36:12.675Z,84.38
2018-08-05T17:38:05.837Z,78.75
2018-08-05T17:39:05.845Z,78.75
2018-08-05T17:40:58.765Z,78.75
2018-08-05T17:41:58.795Z,78.75
2018-08-05T17:43:51.741Z,78.75
2018-08-05T17:44:51.747Z,78.75
2018-08-05T17:46:44.673Z,73.13
2018-08-05T17:47:44.700Z,73.13
2018-08-05T17:49:37.643Z,73.13
2018-08-05T17:50:37.654Z,73.13
2018-08-05T17:52:30.572Z,73.13
2018-08-05T17:53:30.616Z,73.13
2018-08-05T17:55:23.547Z,67.50
2018-08-05T17:56:23.549Z,67.50
2018-08-05T17:58:16.500Z,67.50
2018-08-05T17:59:16.497Z,67.50
2018-08-05T18:01:09.421Z,67.50
2018-08-05T18:02:09.533Z,67.50
2018-08-05T18:04:02.451Z,67.50
2018-08-05T18:05:02.395Z,73.13
2018-08-05T18:06:55.321Z,84.38
2018-08-05T18:07:55.348Z,90.00
2018-08-05T18:09:48.298Z,84.38
2018-08-05T18:10:48.343Z,84.38
2018-08-05T18:12:41.242Z,84.38
2018-08-05T18:13:41.268Z,78.75
2018-08-05T18:15:34.208Z,78.75
2018-08-05T18:16:34.219Z,78.75
2018-08-05T18:18:27.168Z,73.13
2018-08-05T18:19:27.175Z,73.13